createdAt,value
2023-04-09T00:01:51.357Z,64.52
2023-04-09T00:04:23.937Z,64.45
2023-04-09T00:06:54.997Z,64.48
2023-04-09T00:09:26.043Z,64.50
2023-04-09T00:11:58.803Z,64.61
2023-04-09T00:14:30.000Z,64.58
2023-04-09T00:17:01.213Z,64.60
2023-04-09T00:19:33.406Z,64.57
2023-04-09T00:22:04.959Z,64.87
2023-04-09T00:24:35.904Z,64.70
2023-04-09T00:27:06.984Z,64.75
2023-04-09T00:29:38.003Z,65.11
2023-04-09T00:32:09.733Z,65.09
2023-04-09T00:34:40.963Z,65.21
2023-04-09T00:37:12.038Z,65.10
2023-04-09T00:39:43.220Z,64.87
2023-04-09T00:42:14.287Z,64.89
2023-04-09T00:44:45.280Z,65.22
2023-04-09T00:47:16.372Z,65.11
2023-04-09T00:49:47.499Z,65.20
2023-04-09T00:52:18.538Z,65.09
2023-04-09T00:54:50.083Z,65.15
2023-04-09T00:57:21.836Z,65.19
2023-04-09T00:59:53.465Z,65.13
2023-04-09T01:02:24.721Z,65.43
2023-04-09T01:04:55.912Z,65.46
2023-04-09T01:07:38.283Z,65.54
2023-04-09T01:10:18.441Z,65.58
2023-04-09T01:13:05.893Z,65.69
2023-04-09T01:15:42.377Z,65.83
2023-04-09T01:18:20.567Z,65.67
2023-04-09T01:20:58.714Z,65.87
2023-04-09T01:23:38.732Z,65.88
2023-04-09T01:26:22.758Z,65.81
2023-04-09T01:28:59.491Z,66.05
2023-04-09T01:31:33.143Z,65.98
2023-04-09T01:34:06.378Z,66.02
2023-04-09T01:36:41.208Z,66.15
2023-04-09T01:39:12.713Z,66.04
2023-04-09T01:41:44.422Z,66.31
2023-04-09T01:44:16.302Z,66.19
2023-04-09T01:46:50.392Z,66.28
2023-04-09T01:49:21.962Z,66.28
2023-04-09T01:51:53.197Z,66.25
2023-04-09T01:54:24.214Z,66.10
2023-04-09T01:56:55.234Z,66.21
2023-04-09T01:59:26.215Z,66.16
2023-04-09T02:02:01.329Z,66.32
2023-04-09T02:04:33.836Z,66.00
2023-04-09T02:07:11.428Z,66.19
2023-04-09T02:09:44.481Z,66.36
2023-04-09T02:15:52.180Z,66.46
2023-04-09T02:18:28.708Z,66.57
2023-04-09T02:21:00.848Z,66.50
2023-04-09T02:23:33.706Z,66.49
2023-04-09T02:26:04.714Z,66.67
2023-04-09T02:28:35.877Z,66.66
2023-04-09T02:31:07.335Z,66.60
2023-04-09T02:33:38.341Z,66.85
2023-04-09T02:36:16.429Z,66.50
2023-04-09T02:39:01.371Z,66.77
2023-04-09T02:41:32.624Z,66.84
2023-04-09T02:44:06.922Z,66.85
2023-04-09T02:46:39.447Z,66.72
2023-04-09T02:52:07.440Z,66.91
2023-04-09T02:54:38.819Z,67.13
2023-04-09T03:01:21.558Z,66.85
2023-04-09T03:03:53.030Z,66.99
2023-04-09T03:06:26.762Z,66.98
2023-04-09T03:08:57.736Z,67.02
2023-04-09T03:11:28.788Z,67.12
2023-04-09T03:13:59.818Z,67.04
2023-04-09T03:16:31.432Z,67.11
2023-04-09T03:19:11.455Z,67.18
2023-04-09T03:21:42.523Z,67.24
2023-04-09T03:24:13.812Z,67.04
2023-04-09T03:26:45.217Z,66.99
2023-04-09T03:29:16.407Z,67.37
2023-04-09T03:31:47.652Z,67.06
2023-04-09T03:34:19.346Z,67.13
2023-04-09T03:36:53.543Z,67.33
2023-04-09T03:39:31.510Z,67.35
2023-04-09T03:42:02.523Z,67.10
2023-04-09T03:44:37.305Z,67.11
2023-04-09T03:47:14.139Z,67.41
2023-04-09T03:49:45.136Z,67.39
2023-04-09T03:52:25.691Z,67.48
2023-04-09T03:55:04.070Z,67.14
2023-04-09T03:57:35.701Z,67.35
2023-04-09T04:00:09.624Z,67.49
2023-04-09T04:02:54.650Z,67.70
2023-04-09T04:05:45.041Z,67.44
2023-04-09T04:08:20.376Z,67.61
2023-04-09T04:10:51.751Z,67.51
2023-04-09T04:13:22.981Z,67.49
2023-04-09T04:15:59.417Z,67.58
2023-04-09T04:18:32.853Z,67.68
2023-04-09T04:21:03.836Z,67.47
2023-04-09T04:23:36.783Z,67.55
2023-04-09T04:26:19.569Z,67.64
2023-04-09T04:28:51.288Z,67.82
2023-04-09T04:31:32.537Z,67.78
2023-04-09T04:34:03.767Z,67.99
2023-04-09T04:36:34.725Z,67.61
2023-04-09T04:39:05.701Z,67.76
2023-04-09T04:41:45.928Z,67.89
2023-04-09T04:44:20.110Z,67.81
2023-04-09T04:46:51.612Z,67.73
2023-04-09T04:49:22.642Z,67.88
2023-04-09T04:51:53.620Z,67.74
2023-04-09T04:54:24.695Z,67.67
2023-04-09T04:56:58.643Z,67.60
2023-04-09T04:59:41.724Z,67.58
2023-04-09T05:02:14.702Z,67.68
2023-04-09T05:04:53.848Z,67.80
2023-04-09T05:07:28.065Z,67.61
2023-04-09T05:10:01.901Z,67.95
2023-04-09T05:12:36.863Z,67.95
2023-04-09T05:15:09.873Z,67.91
2023-04-09T05:17:45.663Z,68.04
2023-04-09T05:20:15.911Z,68.09
2023-04-09T05:22:55.013Z,68.05
2023-04-09T05:25:31.667Z,68.07
2023-04-09T05:28:03.112Z,68.02
2023-04-09T05:30:34.824Z,68.13
2023-04-09T05:33:06.984Z,68.97
2023-04-09T05:35:41.410Z,68.83
2023-04-09T05:38:13.939Z,68.57
2023-04-09T05:40:46.151Z,68.57
2023-04-09T05:43:17.315Z,67.43
2023-04-09T05:45:48.347Z,66.85
2023-04-09T05:48:19.886Z,66.38
2023-04-09T05:50:55.481Z,65.79
2023-04-09T05:53:28.268Z,65.75
2023-04-09T05:55:59.198Z,65.27
2023-04-09T05:58:32.677Z,64.74
2023-04-09T06:01:03.718Z,64.29
2023-04-09T06:03:34.792Z,63.57
2023-04-09T06:06:06.295Z,63.25
2023-04-09T06:08:38.506Z,63.27
2023-04-09T06:11:13.417Z,63.17
2023-04-09T06:13:44.380Z,63.12
2023-04-09T06:16:16.228Z,62.97
2023-04-09T06:18:49.794Z,62.95
2023-04-09T06:21:20.825Z,62.57
2023-04-09T06:23:53.969Z,62.53
2023-04-09T06:26:27.796Z,62.70
2023-04-09T06:28:58.843Z,62.53
2023-04-09T06:31:31.874Z,62.69
2023-04-09T06:34:03.048Z,62.43
2023-04-09T06:36:40.515Z,62.16
2023-04-09T06:39:11.532Z,62.22
2023-04-09T06:41:42.587Z,61.96
2023-04-09T06:44:26.966Z,61.55
2023-04-09T06:46:58.173Z,61.38
2023-04-09T06:49:29.199Z,61.48
2023-04-09T06:52:00.574Z,61.54
2023-04-09T06:54:31.714Z,61.43
2023-04-09T06:57:02.790Z,61.21
2023-04-09T06:59:34.003Z,61.22
2023-04-09T07:02:05.131Z,61.21
2023-04-09T07:04:36.311Z,61.04
2023-04-09T07:07:07.454Z,60.63
2023-04-09T07:09:38.486Z,60.42
2023-04-09T07:12:09.490Z,60.47
2023-04-09T07:14:40.483Z,60.53
2023-04-09T07:17:11.400Z,60.71
2023-04-09T07:19:42.472Z,60.50
2023-04-09T07:22:13.457Z,59.92
2023-04-09T07:24:44.633Z,59.78
2023-04-09T07:27:15.700Z,59.45
2023-04-09T07:29:48.391Z,58.95
2023-04-09T07:32:19.654Z,58.58
2023-04-09T07:34:52.213Z,58.43
2023-04-09T07:37:23.552Z,58.13
2023-04-09T07:39:54.921Z,57.99
2023-04-09T07:42:27.424Z,57.76
2023-04-09T07:44:58.689Z,57.90
2023-04-09T07:47:30.147Z,57.74
2023-04-09T07:50:01.468Z,57.14
2023-04-09T07:52:32.510Z,56.88
2023-04-09T07:55:03.618Z,57.01
2023-04-09T07:57:35.393Z,57.11
2023-04-09T08:00:08.434Z,57.28
2023-04-09T08:02:48.804Z,57.11
2023-04-09T08:05:20.308Z,56.71
2023-04-09T08:07:52.082Z,56.31
2023-04-09T08:10:23.325Z,55.91
2023-04-09T08:12:54.626Z,56.00
2023-04-09T08:15:25.716Z,55.98
2023-04-09T08:17:57.070Z,55.57
2023-04-09T08:20:29.546Z,55.52
2023-04-09T08:23:00.680Z,55.72
2023-04-09T08:25:31.618Z,55.70
2023-04-09T08:28:02.693Z,55.54
2023-04-09T08:30:34.526Z,55.64
2023-04-09T08:33:06.361Z,55.43
2023-04-09T08:35:38.464Z,55.30
2023-04-09T08:38:09.439Z,55.12
2023-04-09T08:40:40.487Z,54.89
2023-04-09T08:43:15.861Z,54.47
2023-04-09T08:45:47.643Z,54.25
2023-04-09T08:48:21.448Z,54.11
2023-04-09T08:50:52.868Z,53.73
2023-04-09T08:53:24.263Z,53.81
2023-04-09T08:55:55.350Z,53.62
2023-04-09T08:58:26.304Z,53.68
2023-04-09T09:00:57.329Z,53.72
2023-04-09T09:03:28.659Z,53.84
2023-04-09T09:05:59.777Z,53.87
2023-04-09T09:08:30.819Z,54.06
2023-04-09T09:11:02.237Z,54.23
2023-04-09T09:13:33.219Z,53.62
2023-04-09T09:16:18.172Z,53.38
2023-04-09T09:18:58.824Z,53.35
2023-04-09T09:21:31.848Z,53.25
2023-04-09T09:24:04.801Z,53.28
2023-04-09T09:26:41.417Z,53.34
2023-04-09T09:29:15.750Z,53.48
2023-04-09T09:31:53.710Z,53.68
2023-04-09T09:34:27.876Z,53.41
2023-04-09T09:37:01.833Z,53.03
2023-04-09T09:39:45.716Z,52.79
2023-04-09T09:42:16.719Z,52.53
2023-04-09T09:44:50.067Z,52.71
2023-04-09T09:47:22.223Z,52.78
2023-04-09T09:49:57.012Z,52.63
2023-04-09T09:52:28.725Z,52.97
2023-04-09T09:55:04.406Z,53.25
2023-04-09T09:57:40.709Z,53.52
2023-04-09T10:00:16.887Z,53.62
2023-04-09T10:03:01.717Z,53.47
2023-04-09T10:05:37.010Z,52.80
2023-04-09T10:08:08.780Z,52.17
2023-04-09T10:10:43.281Z,51.96
2023-04-09T10:13:21.797Z,51.95
2023-04-09T10:15:53.357Z,51.35
2023-04-09T10:18:24.658Z,51.16
2023-04-09T10:20:59.604Z,51.54
2023-04-09T10:23:39.062Z,51.37
2023-04-09T10:26:10.593Z,51.20
2023-04-09T10:28:41.829Z,51.40
2023-04-09T10:31:12.995Z,51.21
2023-04-09T10:33:47.875Z,50.99
2023-04-09T10:36:22.515Z,50.78
2023-04-09T10:38:53.969Z,50.92
2023-04-09T10:41:29.237Z,50.97
2023-04-09T10:43:58.697Z,51.15
2023-04-09T10:46:31.527Z,51.39
2023-04-09T10:49:13.773Z,51.23
2023-04-09T10:51:49.461Z,51.15
2023-04-09T10:54:46.066Z,51.12
2023-04-09T10:57:20.132Z,50.79
2023-04-09T10:59:53.079Z,50.81
2023-04-09T11:03:08.129Z,50.90
2023-04-09T11:05:41.088Z,50.95
2023-04-09T11:08:13.318Z,50.81
2023-04-09T11:10:46.313Z,50.90
2023-04-09T11:13:20.082Z,51.02
2023-04-09T11:15:51.440Z,51.06
2023-04-09T11:18:26.394Z,50.97
2023-04-09T11:21:01.190Z,50.95
2023-04-09T11:23:33.128Z,50.88
2023-04-09T11:26:04.296Z,50.75
2023-04-09T11:28:37.455Z,50.82
2023-04-09T11:31:09.300Z,50.85
2023-04-09T11:33:40.311Z,50.67
2023-04-09T11:36:11.772Z,50.77
2023-04-09T11:38:42.911Z,50.39
2023-04-09T11:41:14.330Z,50.22
2023-04-09T11:43:45.555Z,50.34
2023-04-09T11:46:16.728Z,50.29
2023-04-09T11:48:48.420Z,50.09
2023-04-09T11:51:19.746Z,49.80
2023-04-09T11:53:51.404Z,49.78
2023-04-09T11:56:22.824Z,49.81
2023-04-09T11:58:56.017Z,49.80
2023-04-09T12:01:31.886Z,49.84
2023-04-09T12:04:03.859Z,49.82
2023-04-09T12:06:41.877Z,49.69
2023-04-09T12:09:14.333Z,49.64
2023-04-09T12:11:48.268Z,49.43
2023-04-09T12:14:22.694Z,49.51
2023-04-09T12:19:42.757Z,49.65
2023-04-09T12:22:13.699Z,49.74
2023-04-09T12:24:44.654Z,49.20
2023-04-09T12:27:33.844Z,48.92
2023-04-09T12:30:06.072Z,48.97
2023-04-09T12:32:37.107Z,49.07
2023-04-09T12:35:09.130Z,49.15
2023-04-09T12:37:40.173Z,48.75
2023-04-09T12:40:13.965Z,48.67
2023-04-09T12:42:45.650Z,48.62
2023-04-09T12:45:18.280Z,48.65
2023-04-09T12:47:49.445Z,48.30
2023-04-09T12:50:21.685Z,48.22
2023-04-09T12:52:52.684Z,48.35
2023-04-09T12:55:24.159Z,48.24
2023-04-09T12:57:55.069Z,48.06
2023-04-09T13:00:26.136Z,47.64
2023-04-09T13:02:57.153Z,47.18
2023-04-09T13:05:28.901Z,47.06
2023-04-09T13:08:00.222Z,46.85
2023-04-09T13:10:31.849Z,46.45
2023-04-09T13:13:03.121Z,46.32
2023-04-09T13:15:34.162Z,46.22
2023-04-09T13:18:05.574Z,46.23
2023-04-09T13:20:36.702Z,46.14
2023-04-09T13:23:07.657Z,46.33
2023-04-09T13:25:38.596Z,46.55
2023-04-09T13:28:10.096Z,46.92
2023-04-09T13:30:41.084Z,47.61
2023-04-09T13:33:12.145Z,49.12
2023-04-09T13:35:43.154Z,50.13
2023-04-09T13:38:14.102Z,50.53
2023-04-09T13:40:45.301Z,51.46
2023-04-09T13:43:16.301Z,51.97
2023-04-09T13:45:47.321Z,52.44
2023-04-09T13:48:18.421Z,53.08
2023-04-09T13:50:49.702Z,54.14
2023-04-09T13:53:22.070Z,54.83
2023-04-09T13:55:53.041Z,55.32
2023-04-09T13:58:24.106Z,55.33
2023-04-09T14:00:55.579Z,55.26
2023-04-09T14:03:26.648Z,55.48
2023-04-09T14:05:57.786Z,55.98
2023-04-09T14:08:28.996Z,55.90
2023-04-09T14:11:00.388Z,56.37
2023-04-09T14:13:32.046Z,56.03
2023-04-09T14:16:03.127Z,56.09
2023-04-09T14:18:34.073Z,56.66
2023-04-09T14:21:05.726Z,57.09
2023-04-09T14:23:37.295Z,56.67
2023-04-09T14:26:09.053Z,56.43
2023-04-09T14:28:40.073Z,56.52
2023-04-09T14:31:24.509Z,56.85
2023-04-09T14:33:55.599Z,57.59
2023-04-09T14:36:28.008Z,58.10
2023-04-09T14:39:00.291Z,58.58
2023-04-09T14:41:34.399Z,58.96
2023-04-09T14:44:35.505Z,59.36
2023-04-09T14:47:06.778Z,59.53
2023-04-09T14:49:39.576Z,59.72
2023-04-09T14:52:11.114Z,59.96
2023-04-09T14:54:44.736Z,60.20
2023-04-09T14:57:15.821Z,60.24
2023-04-09T14:59:47.742Z,60.39
2023-04-09T15:02:53.595Z,60.57
2023-04-09T15:05:25.769Z,60.87
2023-04-09T15:07:57.444Z,61.10
2023-04-09T15:10:28.416Z,61.27
2023-04-09T15:12:59.343Z,61.29
2023-04-09T15:15:30.752Z,61.42
2023-04-09T15:18:05.998Z,61.60
2023-04-09T15:20:40.574Z,61.79
2023-04-09T15:23:12.230Z,61.70
2023-04-09T15:25:43.167Z,61.72
2023-04-09T15:28:14.599Z,61.85
2023-04-09T15:30:57.333Z,61.94
2023-04-09T15:33:28.418Z,62.05
2023-04-09T15:35:59.792Z,62.17
2023-04-09T15:38:30.978Z,62.15
2023-04-09T15:41:01.960Z,62.20
2023-04-09T15:43:33.002Z,62.41
2023-04-09T15:46:10.784Z,62.51
2023-04-09T15:48:41.861Z,62.57
2023-04-09T15:51:13.815Z,62.88
2023-04-09T15:53:44.812Z,63.12
2023-04-09T15:56:16.409Z,63.32
2023-04-09T15:58:47.548Z,63.38
2023-04-09T16:01:19.186Z,63.46
2023-04-09T16:03:52.492Z,63.38
2023-04-09T16:06:23.578Z,63.25
2023-04-09T16:08:54.893Z,63.14
2023-04-09T16:11:26.375Z,63.04
2023-04-09T16:13:59.165Z,63.10
2023-04-09T16:16:31.447Z,63.03
2023-04-09T16:19:03.082Z,63.19
2023-04-09T16:21:36.105Z,63.32
2023-04-09T16:24:07.530Z,63.06
2023-04-09T16:26:45.829Z,62.86
2023-04-09T16:29:17.948Z,62.73
2023-04-09T16:31:49.020Z,62.74
2023-04-09T16:34:22.930Z,62.65
2023-04-09T16:36:58.257Z,62.55
2023-04-09T16:39:33.472Z,62.30
2023-04-09T16:42:03.143Z,62.26
2023-04-09T16:44:37.552Z,62.20
2023-04-09T16:47:11.176Z,62.02
2023-04-09T16:49:42.487Z,62.06
2023-04-09T16:52:13.784Z,62.02
2023-04-09T16:54:49.702Z,61.95
2023-04-09T16:57:20.769Z,61.90
2023-04-09T16:59:52.147Z,61.95
2023-04-09T17:02:24.885Z,61.91
2023-04-09T17:04:56.776Z,61.82
2023-04-09T17:07:28.787Z,61.97
2023-04-09T17:09:59.721Z,61.97
2023-04-09T17:12:31.416Z,62.11
2023-04-09T17:15:02.506Z,62.27
2023-04-09T17:17:44.719Z,62.37
2023-04-09T17:20:18.597Z,62.33
2023-04-09T17:22:54.819Z,62.20
2023-04-09T17:25:48.778Z,62.34
2023-04-09T17:28:20.234Z,62.18
2023-04-09T17:30:51.208Z,62.09
2023-04-09T17:33:23.597Z,62.07
2023-04-09T17:35:58.521Z,62.12
2023-04-09T17:38:56.766Z,62.07
2023-04-09T17:41:34.102Z,62.09
2023-04-09T17:44:05.206Z,62.10
2023-04-09T17:46:39.511Z,62.26
2023-04-09T17:49:12.305Z,62.35
2023-04-09T17:51:44.108Z,62.39
2023-04-09T17:54:15.317Z,62.32
2023-04-09T17:58:23.028Z,62.27
2023-04-09T18:00:23.587Z,62.37
2023-04-09T18:02:57.753Z,62.28
2023-04-09T18:05:29.918Z,62.28
2023-04-09T18:08:02.317Z,62.32
2023-04-09T18:10:44.730Z,62.40
2023-04-09T18:13:16.085Z,62.47
2023-04-09T18:15:47.233Z,62.54
2023-04-09T18:18:18.324Z,62.59
2023-04-09T18:20:52.465Z,62.51
2023-04-09T18:23:31.602Z,62.47
2023-04-09T18:26:11.049Z,62.60
2023-04-09T18:28:52.078Z,62.77
2023-04-09T18:31:30.712Z,62.98
2023-04-09T18:34:01.898Z,63.15
2023-04-09T18:36:32.956Z,63.28
2023-04-09T18:39:05.120Z,63.47
2023-04-09T18:41:50.053Z,63.67
2023-04-09T18:44:26.956Z,64.00
2023-04-09T18:47:22.308Z,64.23
2023-04-09T18:49:53.252Z,64.65
2023-04-09T18:52:25.492Z,64.77
2023-04-09T18:55:06.825Z,64.91
2023-04-09T18:57:37.819Z,65.09
2023-04-09T19:00:18.736Z,65.09
2023-04-09T19:02:50.080Z,65.17
2023-04-09T19:05:21.690Z,65.16
2023-04-09T19:07:52.800Z,65.27
2023-04-09T19:10:24.270Z,65.35
2023-04-09T19:12:56.178Z,65.44
2023-04-09T19:15:33.548Z,65.44
2023-04-09T19:18:04.820Z,65.37
2023-04-09T19:20:37.720Z,65.39
2023-04-09T19:23:08.830Z,65.26
2023-04-09T19:25:39.848Z,65.28
2023-04-09T19:28:19.958Z,65.30
2023-04-09T19:30:52.637Z,65.24
2023-04-09T19:33:26.482Z,65.25
2023-04-09T19:36:05.460Z,65.24
2023-04-09T19:38:36.565Z,65.23
2023-04-09T19:41:07.978Z,65.18
2023-04-09T19:43:39.458Z,65.26
2023-04-09T19:46:14.394Z,65.25
2023-04-09T19:48:45.695Z,65.22
2023-04-09T19:51:20.315Z,65.29
2023-04-09T19:53:55.518Z,65.23
2023-04-09T19:56:28.611Z,65.39
2023-04-09T19:58:59.734Z,65.61
2023-04-09T20:01:32.764Z,65.67
2023-04-09T20:04:05.490Z,65.71
2023-04-09T20:12:48.065Z,65.90
2023-04-09T20:15:20.296Z,65.94
2023-04-09T20:17:59.644Z,66.00
2023-04-09T20:20:31.813Z,66.09
2023-04-09T20:23:03.482Z,66.09
2023-04-09T20:25:36.878Z,66.21
2023-04-09T20:28:09.983Z,66.12
2023-04-09T20:30:41.413Z,66.25
2023-04-09T20:33:13.781Z,66.38
2023-04-09T20:35:45.042Z,66.53
2023-04-09T20:38:16.126Z,66.51
2023-04-09T20:40:47.222Z,66.52
2023-04-09T20:43:18.525Z,66.58
2023-04-09T20:45:51.371Z,66.59
2023-04-09T20:48:23.001Z,66.60
2023-04-09T20:50:54.040Z,66.70
2023-04-09T20:53:25.430Z,66.61
2023-04-09T20:55:57.333Z,66.73
2023-04-09T20:58:29.818Z,66.65
2023-04-09T21:01:07.849Z,66.79
2023-04-09T21:03:40.349Z,66.76
2023-04-09T21:06:11.747Z,66.84
2023-04-09T21:08:50.358Z,66.98
2023-04-09T21:11:21.919Z,67.03
2023-04-09T21:13:55.080Z,66.95
2023-04-09T21:16:36.005Z,67.07
2023-04-09T21:19:08.190Z,67.09
2023-04-09T21:21:39.938Z,66.98
2023-04-09T21:24:11.034Z,67.14
2023-04-09T21:26:51.642Z,67.05
2023-04-09T21:29:25.894Z,67.12
2023-04-09T21:32:07.477Z,67.09
2023-04-09T21:34:39.716Z,67.18
2023-04-09T21:37:11.357Z,67.10
2023-04-09T21:39:55.971Z,67.06
2023-04-09T21:42:30.191Z,67.15
2023-04-09T21:45:04.773Z,67.15
2023-04-09T21:47:36.240Z,67.24
2023-04-09T21:50:09.505Z,67.37
2023-04-09T21:52:44.160Z,67.35
2023-04-09T21:55:17.879Z,67.30
2023-04-09T21:57:49.440Z,67.41
2023-04-09T22:00:20.756Z,67.39
2023-04-09T22:02:52.839Z,67.53
2023-04-09T22:05:24.694Z,67.51
2023-04-09T22:07:56.072Z,67.58
2023-04-09T22:10:27.671Z,67.54
2023-04-09T22:12:58.618Z,67.65
2023-04-09T22:15:29.615Z,67.79
2023-04-09T22:18:00.626Z,67.66
2023-04-09T22:20:31.515Z,67.77
2023-04-09T22:23:02.621Z,67.89
2023-04-09T22:25:35.182Z,67.86
2023-04-09T22:28:07.558Z,67.68
2023-04-09T22:30:38.591Z,67.76
2023-04-09T22:33:09.674Z,67.86
2023-04-09T22:35:41.364Z,68.04
2023-04-09T22:38:12.433Z,67.92
2023-04-09T22:40:43.462Z,68.05
2023-04-09T22:43:14.615Z,68.04
2023-04-09T22:45:51.094Z,68.04
2023-04-09T22:48:23.182Z,68.17
2023-04-09T22:50:54.383Z,68.21
2023-04-09T22:53:25.480Z,68.33
2023-04-09T22:55:59.506Z,68.40
2023-04-09T22:58:30.500Z,68.36
2023-04-09T23:01:01.512Z,68.60
2023-04-09T23:03:32.949Z,68.58
2023-04-09T23:06:03.891Z,68.61
2023-04-09T23:08:34.904Z,68.70
2023-04-09T23:11:07.371Z,68.90
2023-04-09T23:13:38.259Z,68.77
2023-04-09T23:16:11.553Z,68.81
2023-04-09T23:18:43.218Z,68.77
2023-04-09T23:21:14.310Z,68.70
2023-04-09T23:23:45.901Z,68.77
2023-04-09T23:26:16.833Z,68.73
2023-04-09T23:28:47.724Z,68.84
2023-04-09T23:31:18.790Z,69.00
2023-04-09T23:33:49.705Z,69.01
2023-04-09T23:36:20.655Z,68.96
2023-04-09T23:38:51.609Z,69.00
2023-04-09T23:41:22.775Z,69.05
2023-04-09T23:43:53.761Z,69.02
2023-04-09T23:46:24.913Z,69.03
2023-04-09T23:48:55.854Z,69.06
2023-04-09T23:51:26.826Z,69.24
2023-04-09T23:53:57.740Z,69.26
2023-04-09T23:56:29.480Z,69.25
2023-04-09T23:59:00.377Z,69.25
